sensor_id;sensor_type;location;lat;lon;timestamp;temperature;humidity
4635;DHT22;2330;48.158;11.816;2022-10-16T00:01:10;13.10;98.50
4635;DHT22;2330;48.158;11.816;2022-10-16T00:03:39;13.10;98.50
4635;DHT22;2330;48.158;11.816;2022-10-16T00:06:06;13.00;98.50
4635;DHT22;2330;48.158;11.816;2022-10-16T00:08:34;13.00;98.50
4635;DHT22;2330;48.158;11.816;2022-10-16T00:11:12;12.90;98.50
4635;DHT22;2330;48.158;11.816;2022-10-16T00:13:41;12.90;98.50
4635;DHT22;2330;48.158;11.816;2022-10-16T00:16:11;12.90;98.50
4635;DHT22;2330;48.158;11.816;2022-10-16T00:18:39;12.80;98.50
4635;DHT22;2330;48.158;11.816;2022-10-16T00:21:32;12.80;98.50
4635;DHT22;2330;48.158;11.816;2022-10-16T00:24:00;12.80;98.50
4635;DHT22;2330;48.158;11.816;2022-10-16T00:26:29;12.80;98.50
4635;DHT22;2330;48.158;11.816;2022-10-16T00:28:56;12.70;98.50
4635;DHT22;2330;48.158;11.816;2022-10-16T00:31:24;12.70;98.50
4635;DHT22;2330;48.158;11.816;2022-10-16T00:33:51;12.70;98.50
4635;DHT22;2330;48.158;11.816;2022-10-16T00:36:20;12.70;98.50
4635;DHT22;2330;48.158;11.816;2022-10-16T00:38:47;12.60;98.50
4635;DHT22;2330;48.158;11.816;2022-10-16T00:41:17;12.40;98.50
4635;DHT22;2330;48.158;11.816;2022-10-16T00:43:55;12.40;98.50
4635;DHT22;2330;48.158;11.816;2022-10-16T00:46:24;12.40;98.50
4635;DHT22;2330;48.158;11.816;2022-10-16T00:49:09;12.40;98.50
4635;DHT22;2330;48.158;11.816;2022-10-16T00:51:37;12.40;98.50
4635;DHT22;2330;48.158;11.816;2022-10-16T00:54:14;12.40;98.50
4635;DHT22;2330;48.158;11.816;2022-10-16T00:56:43;12.40;98.50
4635;DHT22;2330;48.158;11.816;2022-10-16T00:59:15;12.40;98.50
4635;DHT22;2330;48.158;11.816;2022-10-16T01:01:42;12.40;98.50
4635;DHT22;2330;48.158;11.816;2022-10-16T01:04:09;12.40;98.50
4635;DHT22;2330;48.158;11.816;2022-10-16T01:09:37;12.30;98.50
4635;DHT22;2330;48.158;11.816;2022-10-16T01:15:27;12.30;98.50
4635;DHT22;2330;48.158;11.816;2022-10-16T01:20:31;12.30;98.50
4635;DHT22;2330;48.158;11.816;2022-10-16T01:23:21;12.30;98.50
4635;DHT22;2330;48.158;11.816;2022-10-16T01:26:24;12.40;98.50
4635;DHT22;2330;48.158;11.816;2022-10-16T01:31:31;12.40;98.50
4635;DHT22;2330;48.158;11.816;2022-10-16T01:36:41;12.50;98.50
4635;DHT22;2330;48.158;11.816;2022-10-16T01:39:11;12.50;98.50
4635;DHT22;2330;48.158;11.816;2022-10-16T01:41:44;12.50;98.50
4635;DHT22;2330;48.158;11.816;2022-10-16T01:44:44;12.50;98.50
4635;DHT22;2330;48.158;11.816;2022-10-16T01:47:13;12.40;98.50
4635;DHT22;2330;48.158;11.816;2022-10-16T01:49:41;12.30;98.50
4635;DHT22;2330;48.158;11.816;2022-10-16T01:52:12;12.30;98.50
4635;DHT22;2330;48.158;11.816;2022-10-16T01:54:43;12.40;98.50
4635;DHT22;2330;48.158;11.816;2022-10-16T01:57:13;12.40;98.50
4635;DHT22;2330;48.158;11.816;2022-10-16T01:59:47;12.40;98.50
4635;DHT22;2330;48.158;11.816;2022-10-16T02:02:17;12.30;98.50
4635;DHT22;2330;48.158;11.816;2022-10-16T02:05:02;12.30;98.50
4635;DHT22;2330;48.158;11.816;2022-10-16T02:07:31;12.30;98.50
4635;DHT22;2330;48.158;11.816;2022-10-16T02:09:57;12.30;98.50
4635;DHT22;2330;48.158;11.816;2022-10-16T02:12:36;12.20;98.50
4635;DHT22;2330;48.158;11.816;2022-10-16T02:15:06;12.20;98.50
4635;DHT22;2330;48.158;11.816;2022-10-16T02:17:33;12.10;98.50
4635;DHT22;2330;48.158;11.816;2022-10-16T02:20:00;12.10;98.50
4635;DHT22;2330;48.158;11.816;2022-10-16T02:22:29;12.10;98.50
4635;DHT22;2330;48.158;11.816;2022-10-16T02:25:08;12.10;98.50
4635;DHT22;2330;48.158;11.816;2022-10-16T02:27:47;12.10;98.50
4635;DHT22;2330;48.158;11.816;2022-10-16T02:32:53;12.10;98.50
4635;DHT22;2330;48.158;11.816;2022-10-16T02:35:21;12.10;98.50
4635;DHT22;2330;48.158;11.816;2022-10-16T02:37:50;12.00;98.50
4635;DHT22;2330;48.158;11.816;2022-10-16T02:40:18;12.10;98.50
4635;DHT22;2330;48.158;11.816;2022-10-16T02:42:51;12.00;98.50
4635;DHT22;2330;48.158;11.816;2022-10-16T02:45:19;12.00;98.50
4635;DHT22;2330;48.158;11.816;2022-10-16T02:47:46;12.00;98.50
4635;DHT22;2330;48.158;11.816;2022-10-16T02:50:13;12.00;98.50
4635;DHT22;2330;48.158;11.816;2022-10-16T02:52:40;12.00;98.50
4635;DHT22;2330;48.158;11.816;2022-10-16T02:55:07;12.00;98.50
4635;DHT22;2330;48.158;11.816;2022-10-16T02:57:34;12.00;98.50
4635;DHT22;2330;48.158;11.816;2022-10-16T03:00:04;12.00;98.50
4635;DHT22;2330;48.158;11.816;2022-10-16T03:02:31;12.00;98.50
4635;DHT22;2330;48.158;11.816;2022-10-16T03:04:58;11.90;98.50
4635;DHT22;2330;48.158;11.816;2022-10-16T03:07:25;12.00;98.50
4635;DHT22;2330;48.158;11.816;2022-10-16T03:09:52;12.00;98.50
4635;DHT22;2330;48.158;11.816;2022-10-16T03:12:19;12.00;98.50
4635;DHT22;2330;48.158;11.816;2022-10-16T03:14:46;12.00;98.50
4635;DHT22;2330;48.158;11.816;2022-10-16T03:17:13;12.00;98.50
4635;DHT22;2330;48.158;11.816;2022-10-16T03:19:39;12.00;98.50
4635;DHT22;2330;48.158;11.816;2022-10-16T03:22:06;12.00;98.50
4635;DHT22;2330;48.158;11.816;2022-10-16T03:24:33;11.90;98.50
4635;DHT22;2330;48.158;11.816;2022-10-16T03:26:59;11.90;98.50
4635;DHT22;2330;48.158;11.816;2022-10-16T03:29:26;11.90;98.50
4635;DHT22;2330;48.158;11.816;2022-10-16T03:31:59;11.90;98.50
4635;DHT22;2330;48.158;11.816;2022-10-16T03:34:25;11.90;98.50
4635;DHT22;2330;48.158;11.816;2022-10-16T03:36:52;11.90;98.50
4635;DHT22;2330;48.158;11.816;2022-10-16T03:39:19;11.90;98.50
4635;DHT22;2330;48.158;11.816;2022-10-16T03:41:46;11.90;98.50
4635;DHT22;2330;48.158;11.816;2022-10-16T03:44:13;11.90;98.50
4635;DHT22;2330;48.158;11.816;2022-10-16T03:46:40;11.90;98.50
4635;DHT22;2330;48.158;11.816;2022-10-16T03:49:06;11.90;98.50
4635;DHT22;2330;48.158;11.816;2022-10-16T03:51:35;11.90;98.50
4635;DHT22;2330;48.158;11.816;2022-10-16T03:54:02;11.90;98.50
4635;DHT22;2330;48.158;11.816;2022-10-16T03:56:29;11.90;98.50
4635;DHT22;2330;48.158;11.816;2022-10-16T03:58:55;11.80;98.50
4635;DHT22;2330;48.158;11.816;2022-10-16T04:01:22;11.80;98.50
4635;DHT22;2330;48.158;11.816;2022-10-16T04:03:49;11.80;98.50
4635;DHT22;2330;48.158;11.816;2022-10-16T04:06:15;11.80;98.50
4635;DHT22;2330;48.158;11.816;2022-10-16T04:08:43;11.80;98.50
4635;DHT22;2330;48.158;11.816;2022-10-16T04:11:10;11.90;98.50
4635;DHT22;2330;48.158;11.816;2022-10-16T04:13:37;11.90;98.50
4635;DHT22;2330;48.158;11.816;2022-10-16T04:16:03;11.90;98.50
4635;DHT22;2330;48.158;11.816;2022-10-16T04:18:30;12.00;98.50
4635;DHT22;2330;48.158;11.816;2022-10-16T04:21:05;12.00;98.50
4635;DHT22;2330;48.158;11.816;2022-10-16T04:23:32;12.00;98.50
4635;DHT22;2330;48.158;11.816;2022-10-16T04:25:59;11.90;98.50
4635;DHT22;2330;48.158;11.816;2022-10-16T04:28:26;11.90;98.50
4635;DHT22;2330;48.158;11.816;2022-10-16T04:30:53;11.90;98.50
4635;DHT22;2330;48.158;11.816;2022-10-16T04:33:20;12.00;98.50
4635;DHT22;2330;48.158;11.816;2022-10-16T04:35:46;12.00;98.50
4635;DHT22;2330;48.158;11.816;2022-10-16T04:38:13;12.00;98.50
4635;DHT22;2330;48.158;11.816;2022-10-16T04:40:42;12.00;98.50
4635;DHT22;2330;48.158;11.816;2022-10-16T04:43:09;12.00;98.50
4635;DHT22;2330;48.158;11.816;2022-10-16T04:45:36;12.10;98.50
4635;DHT22;2330;48.158;11.816;2022-10-16T04:48:03;12.10;98.50
4635;DHT22;2330;48.158;11.816;2022-10-16T04:50:29;12.20;98.50
4635;DHT22;2330;48.158;11.816;2022-10-16T04:52:56;12.20;98.50
4635;DHT22;2330;48.158;11.816;2022-10-16T04:55:23;12.20;98.50
4635;DHT22;2330;48.158;11.816;2022-10-16T04:57:49;12.20;98.50
4635;DHT22;2330;48.158;11.816;2022-10-16T05:00:17;12.30;98.50
4635;DHT22;2330;48.158;11.816;2022-10-16T05:02:44;12.30;98.50
4635;DHT22;2330;48.158;11.816;2022-10-16T05:05:11;12.30;98.50
4635;DHT22;2330;48.158;11.816;2022-10-16T05:07:38;12.30;98.50
4635;DHT22;2330;48.158;11.816;2022-10-16T05:10:05;12.30;98.50
4635;DHT22;2330;48.158;11.816;2022-10-16T05:12:32;12.30;98.50
4635;DHT22;2330;48.158;11.816;2022-10-16T05:14:59;12.30;98.50
4635;DHT22;2330;48.158;11.816;2022-10-16T05:17:26;12.40;98.50
4635;DHT22;2330;48.158;11.816;2022-10-16T05:19:53;12.40;98.50
4635;DHT22;2330;48.158;11.816;2022-10-16T05:22:20;12.40;98.50
4635;DHT22;2330;48.158;11.816;2022-10-16T05:24:47;12.40;98.50
4635;DHT22;2330;48.158;11.816;2022-10-16T05:27:14;12.40;98.50
4635;DHT22;2330;48.158;11.816;2022-10-16T05:29:46;12.40;98.50
4635;DHT22;2330;48.158;11.816;2022-10-16T05:32:17;12.40;98.50
4635;DHT22;2330;48.158;11.816;2022-10-16T05:34:44;12.40;98.50
4635;DHT22;2330;48.158;11.816;2022-10-16T05:37:12;12.50;98.50
4635;DHT22;2330;48.158;11.816;2022-10-16T05:39:39;12.50;98.50
4635;DHT22;2330;48.158;11.816;2022-10-16T05:42:06;12.50;98.50
4635;DHT22;2330;48.158;11.816;2022-10-16T05:44:33;12.50;98.50
4635;DHT22;2330;48.158;11.816;2022-10-16T05:46:59;12.50;98.50
4635;DHT22;2330;48.158;11.816;2022-10-16T05:49:26;12.60;98.50
4635;DHT22;2330;48.158;11.816;2022-10-16T05:51:53;12.60;98.50
4635;DHT22;2330;48.158;11.816;2022-10-16T05:54:19;12.60;98.50
4635;DHT22;2330;48.158;11.816;2022-10-16T05:56:46;12.60;98.50
4635;DHT22;2330;48.158;11.816;2022-10-16T05:59:13;12.60;98.50
4635;DHT22;2330;48.158;11.816;2022-10-16T06:01:40;12.60;98.50
4635;DHT22;2330;48.158;11.816;2022-10-16T06:04:07;12.70;98.50
4635;DHT22;2330;48.158;11.816;2022-10-16T06:06:34;12.70;98.50
4635;DHT22;2330;48.158;11.816;2022-10-16T06:09:03;12.70;98.50
4635;DHT22;2330;48.158;11.816;2022-10-16T06:11:31;12.70;98.50
4635;DHT22;2330;48.158;11.816;2022-10-16T06:14:01;12.70;98.50
4635;DHT22;2330;48.158;11.816;2022-10-16T06:16:29;12.70;98.50
4635;DHT22;2330;48.158;11.816;2022-10-16T06:18:56;12.70;98.50
4635;DHT22;2330;48.158;11.816;2022-10-16T06:21:24;12.70;98.50
4635;DHT22;2330;48.158;11.816;2022-10-16T06:23:51;12.70;98.50
4635;DHT22;2330;48.158;11.816;2022-10-16T06:26:20;12.60;98.50
4635;DHT22;2330;48.158;11.816;2022-10-16T06:28:48;12.60;98.50
4635;DHT22;2330;48.158;11.816;2022-10-16T06:31:16;12.60;98.50
4635;DHT22;2330;48.158;11.816;2022-10-16T06:33:43;12.60;98.50
4635;DHT22;2330;48.158;11.816;2022-10-16T06:36:14;12.70;98.50
4635;DHT22;2330;48.158;11.816;2022-10-16T06:38:41;12.60;98.50
4635;DHT22;2330;48.158;11.816;2022-10-16T06:41:12;12.60;98.50
4635;DHT22;2330;48.158;11.816;2022-10-16T06:43:39;12.60;98.50
4635;DHT22;2330;48.158;11.816;2022-10-16T06:46:07;12.70;98.50
4635;DHT22;2330;48.158;11.816;2022-10-16T06:48:36;12.80;98.50
4635;DHT22;2330;48.158;11.816;2022-10-16T06:53:39;12.90;98.50
4635;DHT22;2330;48.158;11.816;2022-10-16T06:56:27;13.00;98.50
4635;DHT22;2330;48.158;11.816;2022-10-16T06:58:54;13.00;98.50
4635;DHT22;2330;48.158;11.816;2022-10-16T07:01:22;13.00;98.50
4635;DHT22;2330;48.158;11.816;2022-10-16T07:03:50;13.10;98.50
4635;DHT22;2330;48.158;11.816;2022-10-16T07:06:21;13.10;98.50
4635;DHT22;2330;48.158;11.816;2022-10-16T07:08:48;13.10;98.50
4635;DHT22;2330;48.158;11.816;2022-10-16T07:11:17;13.10;98.50
4635;DHT22;2330;48.158;11.816;2022-10-16T07:13:45;13.20;98.50
4635;DHT22;2330;48.158;11.816;2022-10-16T07:16:21;13.20;98.50
4635;DHT22;2330;48.158;11.816;2022-10-16T07:18:48;13.30;98.50
4635;DHT22;2330;48.158;11.816;2022-10-16T07:21:20;13.30;98.50
4635;DHT22;2330;48.158;11.816;2022-10-16T07:23:51;13.40;98.50
4635;DHT22;2330;48.158;11.816;2022-10-16T07:26:18;13.50;98.50
4635;DHT22;2330;48.158;11.816;2022-10-16T07:28:45;13.50;98.50
4635;DHT22;2330;48.158;11.816;2022-10-16T07:31:13;13.60;98.50
4635;DHT22;2330;48.158;11.816;2022-10-16T07:33:41;13.70;98.50
4635;DHT22;2330;48.158;11.816;2022-10-16T07:36:12;13.80;98.50
4635;DHT22;2330;48.158;11.816;2022-10-16T07:38:42;13.90;98.50
4635;DHT22;2330;48.158;11.816;2022-10-16T07:41:11;14.00;98.50
4635;DHT22;2330;48.158;11.816;2022-10-16T07:43:38;14.20;98.50
4635;DHT22;2330;48.158;11.816;2022-10-16T07:46:06;14.40;98.50
4635;DHT22;2330;48.158;11.816;2022-10-16T07:48:34;14.50;98.50
4635;DHT22;2330;48.158;11.816;2022-10-16T07:51:03;14.70;98.50
4635;DHT22;2330;48.158;11.816;2022-10-16T07:53:31;15.10;98.50
4635;DHT22;2330;48.158;11.816;2022-10-16T07:56:00;15.50;98.50
4635;DHT22;2330;48.158;11.816;2022-10-16T07:58:28;15.90;98.50
4635;DHT22;2330;48.158;11.816;2022-10-16T08:00:55;16.30;98.50
4635;DHT22;2330;48.158;11.816;2022-10-16T08:03:26;16.60;98.50
4635;DHT22;2330;48.158;11.816;2022-10-16T08:05:53;17.10;98.50
4635;DHT22;2330;48.158;11.816;2022-10-16T08:08:20;17.50;98.50
4635;DHT22;2330;48.158;11.816;2022-10-16T08:10:47;17.80;98.50
4635;DHT22;2330;48.158;11.816;2022-10-16T08:13:14;18.00;98.50
4635;DHT22;2330;48.158;11.816;2022-10-16T08:15:45;18.20;98.50
4635;DHT22;2330;48.158;11.816;2022-10-16T08:18:14;18.20;98.50
4635;DHT22;2330;48.158;11.816;2022-10-16T08:20:42;18.20;98.50
4635;DHT22;2330;48.158;11.816;2022-10-16T08:23:11;18.30;98.50
4635;DHT22;2330;48.158;11.816;2022-10-16T08:25:40;18.40;98.50
4635;DHT22;2330;48.158;11.816;2022-10-16T08:28:09;18.60;98.50
4635;DHT22;2330;48.158;11.816;2022-10-16T08:30:36;18.80;98.50
4635;DHT22;2330;48.158;11.816;2022-10-16T08:33:03;19.10;98.50
4635;DHT22;2330;48.158;11.816;2022-10-16T08:35:30;19.20;98.50
4635;DHT22;2330;48.158;11.816;2022-10-16T08:37:57;19.40;98.50
4635;DHT22;2330;48.158;11.816;2022-10-16T08:40:29;19.50;98.50
4635;DHT22;2330;48.158;11.816;2022-10-16T08:46:02;19.80;98.50
4635;DHT22;2330;48.158;11.816;2022-10-16T08:48:46;20.00;98.50
4635;DHT22;2330;48.158;11.816;2022-10-16T08:54:21;20.40;98.50
4635;DHT22;2330;48.158;11.816;2022-10-16T08:56:49;20.40;98.50
4635;DHT22;2330;48.158;11.816;2022-10-16T08:59:17;20.50;98.50
4635;DHT22;2330;48.158;11.816;2022-10-16T09:01:46;20.20;98.50
4635;DHT22;2330;48.158;11.816;2022-10-16T09:07:35;20.50;98.50
4635;DHT22;2330;48.158;11.816;2022-10-16T09:15:48;21.20;98.40
4635;DHT22;2330;48.158;11.816;2022-10-16T09:18:27;21.20;98.40
4635;DHT22;2330;48.158;11.816;2022-10-16T09:23:43;21.50;97.70
4635;DHT22;2330;48.158;11.816;2022-10-16T09:26:13;21.60;98.00
4635;DHT22;2330;48.158;11.816;2022-10-16T09:28:41;21.60;97.80
4635;DHT22;2330;48.158;11.816;2022-10-16T09:31:19;21.70;98.10
4635;DHT22;2330;48.158;11.816;2022-10-16T09:33:53;21.80;97.30
4635;DHT22;2330;48.158;11.816;2022-10-16T09:36:21;22.00;97.30
4635;DHT22;2330;48.158;11.816;2022-10-16T09:38:50;21.70;97.70
4635;DHT22;2330;48.158;11.816;2022-10-16T09:41:19;21.70;98.50
4635;DHT22;2330;48.158;11.816;2022-10-16T09:46:35;22.00;98.40
4635;DHT22;2330;48.158;11.816;2022-10-16T09:49:22;21.90;97.90
4635;DHT22;2330;48.158;11.816;2022-10-16T09:51:50;22.00;97.40
4635;DHT22;2330;48.158;11.816;2022-10-16T09:54:20;22.00;98.00
4635;DHT22;2330;48.158;11.816;2022-10-16T09:56:47;22.20;98.30
4635;DHT22;2330;48.158;11.816;2022-10-16T09:59:20;22.40;98.50
4635;DHT22;2330;48.158;11.816;2022-10-16T10:01:52;22.20;97.20
4635;DHT22;2330;48.158;11.816;2022-10-16T10:04:19;22.10;98.50
4635;DHT22;2330;48.158;11.816;2022-10-16T10:06:52;22.20;96.60
4635;DHT22;2330;48.158;11.816;2022-10-16T10:09:28;22.30;96.70
4635;DHT22;2330;48.158;11.816;2022-10-16T10:11:57;22.40;96.80
4635;DHT22;2330;48.158;11.816;2022-10-16T10:19:42;22.70;95.10
4635;DHT22;2330;48.158;11.816;2022-10-16T10:22:18;22.70;94.80
4635;DHT22;2330;48.158;11.816;2022-10-16T10:31:08;23.10;92.30
4635;DHT22;2330;48.158;11.816;2022-10-16T10:34:09;23.20;92.30
4635;DHT22;2330;48.158;11.816;2022-10-16T10:36:44;23.40;92.50
4635;DHT22;2330;48.158;11.816;2022-10-16T10:39:32;23.50;90.80
4635;DHT22;2330;48.158;11.816;2022-10-16T10:42:09;23.50;91.60
4635;DHT22;2330;48.158;11.816;2022-10-16T10:44:50;23.70;89.40
4635;DHT22;2330;48.158;11.816;2022-10-16T10:50:46;23.80;90.70
4635;DHT22;2330;48.158;11.816;2022-10-16T10:56:30;23.70;89.30
4635;DHT22;2330;48.158;11.816;2022-10-16T11:07:11;24.30;88.90
4635;DHT22;2330;48.158;11.816;2022-10-16T11:09:48;24.50;88.70
4635;DHT22;2330;48.158;11.816;2022-10-16T11:12:29;24.80;86.70
4635;DHT22;2330;48.158;11.816;2022-10-16T11:15:18;24.90;87.20
4635;DHT22;2330;48.158;11.816;2022-10-16T11:18:11;25.20;86.30
4635;DHT22;2330;48.158;11.816;2022-10-16T11:21:10;25.20;85.90
4635;DHT22;2330;48.158;11.816;2022-10-16T11:24:00;25.30;83.50
4635;DHT22;2330;48.158;11.816;2022-10-16T11:26:34;25.40;80.70
4635;DHT22;2330;48.158;11.816;2022-10-16T11:29:03;25.80;80.40
4635;DHT22;2330;48.158;11.816;2022-10-16T11:31:50;26.10;78.70
4635;DHT22;2330;48.158;11.816;2022-10-16T11:34:42;26.00;78.20
4635;DHT22;2330;48.158;11.816;2022-10-16T11:37:16;26.20;78.60
4635;DHT22;2330;48.158;11.816;2022-10-16T11:39:44;26.20;75.50
4635;DHT22;2330;48.158;11.816;2022-10-16T11:42:34;26.20;76.00
4635;DHT22;2330;48.158;11.816;2022-10-16T11:51:02;26.10;74.20
4635;DHT22;2330;48.158;11.816;2022-10-16T11:54:08;26.10;72.20
4635;DHT22;2330;48.158;11.816;2022-10-16T11:56:41;26.10;72.30
4635;DHT22;2330;48.158;11.816;2022-10-16T12:01:59;26.20;71.90
4635;DHT22;2330;48.158;11.816;2022-10-16T12:04:46;26.30;73.80
4635;DHT22;2330;48.158;11.816;2022-10-16T12:07:24;26.70;72.90
4635;DHT22;2330;48.158;11.816;2022-10-16T12:09:54;26.70;72.10
4635;DHT22;2330;48.158;11.816;2022-10-16T12:15:27;27.00;72.40
4635;DHT22;2330;48.158;11.816;2022-10-16T12:18:22;26.90;70.60
4635;DHT22;2330;48.158;11.816;2022-10-16T12:20:58;26.70;70.90
4635;DHT22;2330;48.158;11.816;2022-10-16T12:23:46;26.60;69.90
4635;DHT22;2330;48.158;11.816;2022-10-16T12:26:13;26.60;70.40
4635;DHT22;2330;48.158;11.816;2022-10-16T12:28:40;26.50;70.10
4635;DHT22;2330;48.158;11.816;2022-10-16T12:31:09;26.40;71.20
4635;DHT22;2330;48.158;11.816;2022-10-16T12:33:39;26.50;71.20
4635;DHT22;2330;48.158;11.816;2022-10-16T12:36:15;26.50;70.40
4635;DHT22;2330;48.158;11.816;2022-10-16T12:41:34;26.60;71.00
4635;DHT22;2330;48.158;11.816;2022-10-16T12:44:02;26.70;70.50
4635;DHT22;2330;48.158;11.816;2022-10-16T12:51:54;27.40;70.40
4635;DHT22;2330;48.158;11.816;2022-10-16T12:54:46;27.60;68.50
4635;DHT22;2330;48.158;11.816;2022-10-16T13:10:21;27.00;70.00
4635;DHT22;2330;48.158;11.816;2022-10-16T13:13:10;27.10;70.00
4635;DHT22;2330;48.158;11.816;2022-10-16T13:21:48;27.00;70.20
4635;DHT22;2330;48.158;11.816;2022-10-16T13:24:43;27.10;69.90
4635;DHT22;2330;48.158;11.816;2022-10-16T13:29:59;27.10;69.00
4635;DHT22;2330;48.158;11.816;2022-10-16T13:32:27;27.00;70.00
4635;DHT22;2330;48.158;11.816;2022-10-16T13:34:54;27.20;69.90
4635;DHT22;2330;48.158;11.816;2022-10-16T13:37:25;27.30;70.00
4635;DHT22;2330;48.158;11.816;2022-10-16T13:40:19;27.60;69.20
4635;DHT22;2330;48.158;11.816;2022-10-16T13:42:46;27.60;69.30
4635;DHT22;2330;48.158;11.816;2022-10-16T13:45:23;27.60;68.50
4635;DHT22;2330;48.158;11.816;2022-10-16T13:48:00;27.70;68.40
4635;DHT22;2330;48.158;11.816;2022-10-16T13:50:27;27.80;68.90
4635;DHT22;2330;48.158;11.816;2022-10-16T13:53:07;27.70;69.60
4635;DHT22;2330;48.158;11.816;2022-10-16T13:55:38;27.60;70.00
4635;DHT22;2330;48.158;11.816;2022-10-16T13:58:12;27.60;70.10
4635;DHT22;2330;48.158;11.816;2022-10-16T14:00:40;27.50;69.80
4635;DHT22;2330;48.158;11.816;2022-10-16T14:03:20;27.60;70.60
4635;DHT22;2330;48.158;11.816;2022-10-16T14:05:55;27.50;69.20
4635;DHT22;2330;48.158;11.816;2022-10-16T14:08:24;27.20;70.70
4635;DHT22;2330;48.158;11.816;2022-10-16T14:10:55;27.30;71.50
4635;DHT22;2330;48.158;11.816;2022-10-16T14:13:34;27.40;71.10
4635;DHT22;2330;48.158;11.816;2022-10-16T14:16:07;27.20;72.00
4635;DHT22;2330;48.158;11.816;2022-10-16T14:18:37;27.20;71.80
4635;DHT22;2330;48.158;11.816;2022-10-16T14:21:13;27.10;71.60
4635;DHT22;2330;48.158;11.816;2022-10-16T14:23:42;27.00;71.90
4635;DHT22;2330;48.158;11.816;2022-10-16T14:28:37;26.90;71.90
4635;DHT22;2330;48.158;11.816;2022-10-16T14:31:24;26.70;73.40
4635;DHT22;2330;48.158;11.816;2022-10-16T14:33:51;26.30;74.60
4635;DHT22;2330;48.158;11.816;2022-10-16T14:36:18;26.10;73.90
4635;DHT22;2330;48.158;11.816;2022-10-16T14:41:28;26.10;72.40
4635;DHT22;2330;48.158;11.816;2022-10-16T14:43:56;26.10;73.60
4635;DHT22;2330;48.158;11.816;2022-10-16T14:46:32;26.00;74.20
4635;DHT22;2330;48.158;11.816;2022-10-16T14:51:41;25.90;75.80
4635;DHT22;2330;48.158;11.816;2022-10-16T14:54:09;26.00;74.80
4635;DHT22;2330;48.158;11.816;2022-10-16T14:56:54;26.00;75.10
4635;DHT22;2330;48.158;11.816;2022-10-16T14:59:36;25.90;73.80
4635;DHT22;2330;48.158;11.816;2022-10-16T15:02:27;25.70;75.20
4635;DHT22;2330;48.158;11.816;2022-10-16T15:04:55;25.50;75.90
4635;DHT22;2330;48.158;11.816;2022-10-16T15:07:22;25.20;77.30
4635;DHT22;2330;48.158;11.816;2022-10-16T15:09:50;24.80;77.40
4635;DHT22;2330;48.158;11.816;2022-10-16T15:12:17;24.40;78.80
4635;DHT22;2330;48.158;11.816;2022-10-16T15:14:43;24.10;79.10
4635;DHT22;2330;48.158;11.816;2022-10-16T15:17:11;23.80;79.30
4635;DHT22;2330;48.158;11.816;2022-10-16T15:19:38;23.50;79.90
4635;DHT22;2330;48.158;11.816;2022-10-16T15:22:05;23.20;82.00
4635;DHT22;2330;48.158;11.816;2022-10-16T15:24:31;23.00;82.90
4635;DHT22;2330;48.158;11.816;2022-10-16T15:26:58;22.80;83.60
4635;DHT22;2330;48.158;11.816;2022-10-16T15:29:25;22.60;83.50
4635;DHT22;2330;48.158;11.816;2022-10-16T15:31:51;22.50;84.40
4635;DHT22;2330;48.158;11.816;2022-10-16T15:34:18;22.30;85.40
4635;DHT22;2330;48.158;11.816;2022-10-16T15:36:46;22.20;86.00
4635;DHT22;2330;48.158;11.816;2022-10-16T15:39:18;22.00;86.30
4635;DHT22;2330;48.158;11.816;2022-10-16T15:41:47;21.90;87.00
4635;DHT22;2330;48.158;11.816;2022-10-16T15:44:17;21.80;87.90
4635;DHT22;2330;48.158;11.816;2022-10-16T15:46:44;21.70;88.90
4635;DHT22;2330;48.158;11.816;2022-10-16T15:49:12;21.50;88.50
4635;DHT22;2330;48.158;11.816;2022-10-16T15:51:40;21.50;89.20
4635;DHT22;2330;48.158;11.816;2022-10-16T15:54:08;21.40;89.40
4635;DHT22;2330;48.158;11.816;2022-10-16T15:56:35;21.30;89.90
4635;DHT22;2330;48.158;11.816;2022-10-16T15:59:03;21.20;90.40
4635;DHT22;2330;48.158;11.816;2022-10-16T16:01:34;21.10;90.90
4635;DHT22;2330;48.158;11.816;2022-10-16T16:04:01;21.00;90.90
4635;DHT22;2330;48.158;11.816;2022-10-16T16:06:41;20.90;90.80
4635;DHT22;2330;48.158;11.816;2022-10-16T16:09:12;20.90;91.40
4635;DHT22;2330;48.158;11.816;2022-10-16T16:11:39;20.70;91.60
4635;DHT22;2330;48.158;11.816;2022-10-16T16:14:06;20.70;91.90
4635;DHT22;2330;48.158;11.816;2022-10-16T16:16:33;20.60;92.10
4635;DHT22;2330;48.158;11.816;2022-10-16T16:19:04;20.50;92.20
4635;DHT22;2330;48.158;11.816;2022-10-16T16:21:37;20.50;92.70
4635;DHT22;2330;48.158;11.816;2022-10-16T16:24:04;20.40;93.10
4635;DHT22;2330;48.158;11.816;2022-10-16T16:26:34;20.20;94.80
4635;DHT22;2330;48.158;11.816;2022-10-16T16:29:04;20.10;95.80
4635;DHT22;2330;48.158;11.816;2022-10-16T16:31:31;20.00;95.70
4635;DHT22;2330;48.158;11.816;2022-10-16T16:33:58;19.90;96.60
4635;DHT22;2330;48.158;11.816;2022-10-16T16:36:25;19.70;97.50
4635;DHT22;2330;48.158;11.816;2022-10-16T16:38:52;19.70;98.00
4635;DHT22;2330;48.158;11.816;2022-10-16T16:41:21;19.60;98.40
4635;DHT22;2330;48.158;11.816;2022-10-16T16:43:48;19.50;98.50
4635;DHT22;2330;48.158;11.816;2022-10-16T16:46:15;19.40;98.50
4635;DHT22;2330;48.158;11.816;2022-10-16T16:48:41;19.30;98.50
4635;DHT22;2330;48.158;11.816;2022-10-16T16:51:13;19.30;98.50
4635;DHT22;2330;48.158;11.816;2022-10-16T16:53:43;19.20;98.50
4635;DHT22;2330;48.158;11.816;2022-10-16T16:56:11;19.10;98.50
4635;DHT22;2330;48.158;11.816;2022-10-16T16:58:38;19.10;98.50
4635;DHT22;2330;48.158;11.816;2022-10-16T17:01:05;19.00;98.50
4635;DHT22;2330;48.158;11.816;2022-10-16T17:03:50;18.90;98.50
4635;DHT22;2330;48.158;11.816;2022-10-16T17:06:20;18.90;98.50
4635;DHT22;2330;48.158;11.816;2022-10-16T17:08:49;18.90;98.50
4635;DHT22;2330;48.158;11.816;2022-10-16T17:11:18;18.80;98.50
4635;DHT22;2330;48.158;11.816;2022-10-16T17:13:45;18.80;98.50
4635;DHT22;2330;48.158;11.816;2022-10-16T17:16:16;18.70;98.50
4635;DHT22;2330;48.158;11.816;2022-10-16T17:18:43;18.70;98.50
4635;DHT22;2330;48.158;11.816;2022-10-16T17:21:10;18.60;98.50
4635;DHT22;2330;48.158;11.816;2022-10-16T17:23:37;18.60;98.50
4635;DHT22;2330;48.158;11.816;2022-10-16T17:26:10;18.50;98.50
4635;DHT22;2330;48.158;11.816;2022-10-16T17:28:38;18.50;98.50
4635;DHT22;2330;48.158;11.816;2022-10-16T17:31:17;18.40;98.50
4635;DHT22;2330;48.158;11.816;2022-10-16T17:33:44;18.30;98.50
4635;DHT22;2330;48.158;11.816;2022-10-16T17:36:11;18.20;98.50
4635;DHT22;2330;48.158;11.816;2022-10-16T17:38:41;18.10;98.50
4635;DHT22;2330;48.158;11.816;2022-10-16T17:43:44;18.00;98.50
4635;DHT22;2330;48.158;11.816;2022-10-16T17:46:13;17.90;98.50
4635;DHT22;2330;48.158;11.816;2022-10-16T17:48:42;17.90;98.50
4635;DHT22;2330;48.158;11.816;2022-10-16T17:51:10;17.80;98.50
4635;DHT22;2330;48.158;11.816;2022-10-16T17:53:38;17.80;98.50
4635;DHT22;2330;48.158;11.816;2022-10-16T17:56:08;17.60;98.50
4635;DHT22;2330;48.158;11.816;2022-10-16T17:58:35;17.60;98.50
4635;DHT22;2330;48.158;11.816;2022-10-16T18:01:13;17.60;98.50
4635;DHT22;2330;48.158;11.816;2022-10-16T18:03:40;17.60;98.50
4635;DHT22;2330;48.158;11.816;2022-10-16T18:06:07;17.50;98.50